Time;durP1;ratioP1;P1;durP2;ratioP2;P2;SDS_P1;SDS_P2;PMS_P1;PMS_P2;Temp;Humidity;BMP_temperature;BMP_pressure;BME280_temperature;BME280_humidity;BME280_pressure;Samples;Min_cycle;Max_cycle;Signal;HPM_P1;HPM_P2
2022/07/11 00:01:46;;;;;;;;;2.00;2.00;;;;;17.44;40.99;99537.47;5091449;28;8851;-77
2022/07/11 00:04:17;;;;;;;;;3.20;3.20;;;;;17.44;40.79;99536.63;5091443;28;8828;-75
2022/07/11 00:06:45;;;;;;;;;1.40;1.40;;;;;17.37;40.61;99540.34;5092114;28;8859;-74
2022/07/11 00:09:14;;;;;;;;;2.40;2.00;;;;;17.19;40.64;99549.63;5090945;28;10046;-77
2022/07/11 00:11:42;;;;;;;;;2.00;2.00;;;;;17.27;40.74;99537.09;5081125;28;8829;-74
2022/07/11 00:14:11;;;;;;;;;1.20;1.20;;;;;17.33;40.62;99537.81;5089690;28;8903;-74
2022/07/11 00:16:39;;;;;;;;;2.00;2.00;;;;;17.36;40.79;99543.91;5073849;28;8849;-75
2022/07/11 00:19:08;;;;;;;;;1.00;1.00;;;;;17.19;41.40;99549.63;5040576;28;8873;-75
2022/07/11 00:21:38;;;;;;;;;2.80;1.80;;;;;17.17;41.49;99547.03;5072713;28;8866;-75
2022/07/11 00:24:08;;;;;;;;;3.00;2.00;;;;;17.19;41.19;99545.22;5089979;28;8857;-75
2022/07/11 00:26:36;;;;;;;;;1.00;1.00;;;;;17.17;41.73;99547.03;5055283;28;9696;-76
2022/07/11 00:29:06;;;;;;;;;1.00;1.00;;;;;17.01;41.89;99543.09;5039931;28;9623;-75
2022/07/11 00:31:34;;;;;;;;;2.80;2.00;;;;;17.04;41.66;99551.78;5089451;28;8853;-75
2022/07/11 00:34:03;;;;;;;;;2.00;2.00;;;;;17.12;41.30;99541.03;5073905;28;8841;-74
2022/07/11 00:36:32;;;;;;;;;1.40;1.40;;;;;17.05;41.37;99529.81;5076964;28;8858;-75
2022/07/11 00:39:02;;;;;;;;;2.00;2.00;;;;;16.93;41.56;99535.38;5056530;28;8892;-75
2022/07/11 00:41:31;;;;;;;;;2.40;2.40;;;;;16.83;42.00;99531.28;5072321;28;8841;-75
2022/07/11 00:44:01;;;;;;;;;1.80;1.80;;;;;16.86;41.83;99532.06;5082618;28;8840;-75
2022/07/11 00:46:30;;;;;;;;;2.60;2.60;;;;;16.90;41.62;99533.72;5068888;28;8875;-78
2022/07/11 00:49:00;;;;;;;;;1.60;1.60;;;;;16.81;42.28;99538.34;5056620;28;8870;-76
2022/07/11 00:51:29;;;;;;;;;1.00;1.00;;;;;16.74;42.36;99537.63;5070533;28;8850;-75
2022/07/11 00:53:59;;;;;;;;;1.60;1.60;;;;;16.71;42.35;99541.19;5071552;28;9588;-76
2022/07/11 00:56:30;;;;;;;;;2.00;2.00;;;;;16.72;42.56;99539.44;5053793;28;9745;-75
2022/07/11 00:59:00;;;;;;;;;1.00;1.00;;;;;16.62;42.63;99543.22;5071175;28;8870;-75
2022/07/11 01:01:28;;;;;;;;;2.00;2.00;;;;;16.53;42.73;99534.63;5068930;28;8830;-75
2022/07/11 01:03:57;;;;;;;;;1.80;1.80;;;;;16.55;42.92;99540.72;5036362;28;8853;-75
2022/07/11 01:06:26;;;;;;;;;1.60;0.80;;;;;16.54;43.05;99532.84;5068861;28;8850;-76
2022/07/11 01:08:55;;;;;;;;;2.60;1.00;;;;;16.48;43.29;99540.91;5069468;28;8854;-77
2022/07/11 01:11:23;;;;;;;;;1.00;1.00;;;;;16.34;43.67;99531.56;5069475;28;8861;-77
2022/07/11 01:13:53;;;;;;;;;1.00;1.00;;;;;16.29;43.27;99533.44;5069760;28;8846;-76
2022/07/11 01:16:23;;;;;;;;;2.40;2.20;;;;;16.32;43.66;99536.03;5069693;28;8869;-78
2022/07/11 01:18:53;;;;;;;;;1.80;1.80;;;;;16.26;44.06;99538.81;5068596;28;8846;-76
2022/07/11 01:21:29;;;;;;;;;3.00;1.20;;;;;16.10;44.19;99533.03;5070495;28;8842;-75
2022/07/11 01:24:01;;;;;;;;;0.00;0.00;;;;;16.10;44.41;99538.28;5070804;28;8834;-78
2022/07/11 01:26:32;;;;;;;;;2.00;2.00;;;;;16.11;44.49;99531.28;5052672;28;8858;-75
2022/07/11 01:29:06;;;;;;;;;1.60;1.60;;;;;16.05;44.64;99537.53;5068311;28;8874;-73
2022/07/11 01:31:35;;;;;;;;;2.00;1.00;;;;;15.95;45.17;99541.28;5069040;28;8831;-75
2022/07/11 01:34:04;;;;;;;;;1.40;1.40;;;;;15.93;45.21;99540.44;5069290;28;8850;-75
2022/07/11 01:36:33;;;;;;;;;1.20;1.20;;;;;15.92;45.51;99542.22;5049063;28;8860;-74
2022/07/11 01:39:04;;;;;;;;;1.80;1.80;;;;;15.92;45.68;99529.06;5086232;28;8843;-76
2022/07/11 01:41:32;;;;;;;;;0.60;0.60;;;;;15.75;46.35;99536.47;5089788;28;8848;-75
2022/07/11 01:44:01;;;;;;;;;1.40;1.40;;;;;15.75;46.44;99534.69;5090725;28;8864;-74
2022/07/11 01:46:30;;;;;;;;;1.60;1.60;;;;;15.83;46.57;99539.78;5088910;28;8851;-76
2022/07/11 01:48:58;;;;;;;;;2.00;2.00;;;;;15.86;46.46;99542.34;5089036;28;8832;-75
2022/07/11 01:51:29;;;;;;;;;1.20;1.20;;;;;15.70;46.83;99531.25;5072096;28;8859;-74
2022/07/11 01:53:58;;;;;;;;;2.00;2.00;;;;;15.64;47.08;99533.19;5071551;28;8848;-75
2022/07/11 01:56:29;;;;;;;;;1.00;1.00;;;;;15.70;47.30;99533.03;5089632;28;8971;-74
2022/07/11 01:59:01;;;;;;;;;2.00;2.00;;;;;15.65;47.21;99540.16;5090540;28;8859;-76
2022/07/11 02:01:29;;;;;;;;;1.40;1.00;;;;;15.57;47.51;99545.56;5090446;28;8926;-75
2022/07/11 02:03:58;;;;;;;;;1.40;1.40;;;;;15.45;47.57;99551.94;5090670;28;8844;-74
2022/07/11 02:06:27;;;;;;;;;1.20;1.20;;;;;15.59;47.40;99536.78;5089771;28;8840;-76
2022/07/11 02:08:56;;;;;;;;;1.00;1.00;;;;;15.59;47.57;99526.25;5070063;28;8862;-77
2022/07/11 02:11:24;;;;;;;;;2.00;2.00;;;;;15.62;47.56;99548.13;5070413;28;8850;-76
2022/07/11 02:13:54;;;;;;;;;2.00;2.00;;;;;15.47;47.88;99552.78;5068734;28;8858;-75
2022/07/11 02:16:23;;;;;;;;;1.00;1.00;;;;;15.50;47.90;99544.84;5068488;28;8881;-74
2022/07/11 02:18:51;;;;;;;;;1.00;1.00;;;;;15.50;47.68;99547.47;5068555;28;8858;-76
2022/07/11 02:21:20;;;;;;;;;1.80;1.60;;;;;15.53;47.87;99547.38;5084390;28;8854;-74
2022/07/11 02:23:49;;;;;;;;;1.00;1.00;;;;;15.40;48.37;99554.66;5069204;28;8851;-75
2022/07/11 02:26:17;;;;;;;;;0.40;0.20;;;;;15.36;48.30;99560.88;5067811;28;8869;-75
2022/07/11 02:28:46;;;;;;;;;1.00;1.00;;;;;15.42;48.34;99561.66;5017826;28;8854;-74
2022/07/11 02:31:17;;;;;;;;;0.40;0.40;;;;;15.46;48.38;99560.69;5069717;28;8866;-77
2022/07/11 02:33:45;;;;;;;;;1.00;1.00;;;;;15.48;48.44;99556.25;5069939;28;8850;-74
2022/07/11 02:36:14;;;;;;;;;2.00;2.00;;;;;15.37;48.77;99572.28;5070559;28;8896;-77
2022/07/11 02:38:43;;;;;;;;;2.00;2.00;;;;;15.36;48.82;99573.16;5085901;28;9705;-75
2022/07/11 02:41:12;;;;;;;;;1.80;1.00;;;;;15.35;48.78;99576.69;5089669;28;8986;-75
2022/07/11 02:43:41;;;;;;;;;2.60;2.00;;;;;15.41;48.76;99571.31;5088467;28;8912;-76
2022/07/11 02:46:09;;;;;;;;;2.20;1.00;;;;;15.26;49.23;99574.25;5104477;28;8841;-75
2022/07/11 02:48:40;;;;;;;;;1.80;1.80;;;;;15.15;49.64;99572.66;5074607;28;8867;-74
2022/07/11 02:51:09;;;;;;;;;1.00;1.00;;;;;15.12;49.87;99571.84;5109512;28;8942;-73
2022/07/11 02:53:37;;;;;;;;;2.80;1.80;;;;;15.14;49.96;99570.94;5109723;28;8917;-74
2022/07/11 02:56:07;;;;;;;;;1.40;1.40;;;;;14.89;50.64;99572.28;5073872;28;8903;-76
2022/07/11 02:58:36;;;;;;;;;1.20;1.20;;;;;14.90;50.76;99568.78;5091075;28;8849;-78
2022/07/11 03:01:06;;;;;;;;;2.00;1.00;;;;;14.97;50.51;99573.88;5108434;28;8853;-74
2022/07/11 03:03:35;;;;;;;;;2.00;2.00;;;;;14.90;50.77;99579.28;5090253;28;8954;-74
2022/07/11 03:06:05;;;;;;;;;2.00;2.00;;;;;14.72;51.67;99581.31;5089196;28;8839;-75
2022/07/11 03:08:34;;;;;;;;;2.00;1.00;;;;;14.76;51.47;99569.00;5087268;28;8828;-75
2022/07/11 03:11:03;;;;;;;;;1.20;1.20;;;;;14.78;51.42;99578.59;5053812;28;8894;-73
2022/07/11 03:13:35;;;;;;;;;2.60;1.40;;;;;14.77;51.79;99576.84;5089449;28;8836;-77
2022/07/11 03:16:05;;;;;;;;;1.80;1.80;;;;;14.61;52.31;99573.63;5088229;28;9644;-76
2022/07/11 03:18:34;;;;;;;;;1.20;1.20;;;;;14.55;52.82;99572.81;5073623;28;8847;-74
2022/07/11 03:21:02;;;;;;;;;2.20;2.20;;;;;14.65;52.71;99579.69;5088179;28;8820;-74
2022/07/11 03:23:32;;;;;;;;;1.80;1.80;;;;;14.64;52.81;99585.81;5089408;28;8898;-76
2022/07/11 03:26:01;;;;;;;;;2.00;1.00;;;;;14.65;52.75;99591.94;5087682;28;9007;-77
2022/07/11 03:28:29;;;;;;;;;3.00;3.00;;;;;14.61;53.05;99586.75;5088814;28;8855;-78
2022/07/11 03:30:58;;;;;;;;;3.00;2.20;;;;;14.67;52.97;99598.03;5089107;28;8967;-73
2022/07/11 03:33:27;;;;;;;;;1.80;1.80;;;;;14.70;52.93;99596.22;5088320;27;8866;-77
2022/07/11 03:35:55;;;;;;;;;2.00;2.00;;;;;14.73;52.97;99605.81;5089736;28;8836;-74
2022/07/11 03:38:24;;;;;;;;;4.60;4.60;;;;;14.87;52.64;99608.19;5088773;28;8990;-75
2022/07/11 03:40:55;;;;;;;;;4.40;3.40;;;;;15.14;51.97;99604.22;5089134;28;8855;-75
2022/07/11 03:43:24;;;;;;;;;0.80;0.80;;;;;15.21;51.77;99604.06;5070917;28;8831;-73
2022/07/11 03:45:53;;;;;;;;;1.20;1.20;;;;;15.02;52.36;99600.91;5089150;28;8974;-74
2022/07/11 03:48:21;;;;;;;;;4.60;3.00;;;;;14.88;52.88;99609.94;5087544;28;8963;-74
2022/07/11 03:50:50;;;;;;;;;2.00;2.00;;;;;14.68;53.50;99608.50;5089049;28;8843;-74
2022/07/11 03:53:19;;;;;;;;;2.00;2.00;;;;;14.72;53.75;99601.44;5091632;28;8843;-72
2022/07/11 03:55:47;;;;;;;;;3.00;3.00;;;;;14.70;53.76;99609.34;5090186;28;8863;-75
2022/07/11 03:58:17;;;;;;;;;2.00;2.00;;;;;14.68;53.71;99608.50;5088094;28;9485;-76
2022/07/11 04:00:46;;;;;;;;;3.80;2.80;;;;;14.78;53.80;99611.84;5071616;28;8964;-75
2022/07/11 04:03:15;;;;;;;;;3.60;2.00;;;;;14.82;53.77;99611.78;5070843;28;9581;-74
2022/07/11 04:05:43;;;;;;;;;3.60;2.40;;;;;14.91;53.68;99608.09;5099069;28;8821;-74
2022/07/11 04:08:11;;;;;;;;;2.00;2.00;;;;;15.14;53.27;99612.97;5109708;28;8853;-75
2022/07/11 04:10:40;;;;;;;;;2.60;2.60;;;;;15.19;53.06;99608.47;5094131;28;8852;-75
2022/07/11 04:13:09;;;;;;;;;4.80;4.80;;;;;14.92;53.93;99622.97;5111501;28;8841;-74
2022/07/11 04:15:39;;;;;;;;;6.60;4.60;;;;;14.72;54.76;99620.69;5112492;28;8861;-74
2022/07/11 04:18:08;;;;;;;;;5.00;5.00;;;;;14.74;54.90;99618.03;5112456;28;8829;-74
2022/07/11 04:20:37;;;;;;;;;4.00;3.00;;;;;14.71;54.87;99613.72;5111135;28;8845;-74
2022/07/11 04:23:05;;;;;;;;;4.80;4.80;;;;;14.67;55.28;99619.91;5074719;28;8886;-74
2022/07/11 04:25:34;;;;;;;;;3.40;3.40;;;;;14.64;55.49;99626.97;5091916;28;8874;-75
2022/07/11 04:28:03;;;;;;;;;2.00;2.00;;;;;14.73;55.33;99622.44;5073134;28;8966;-73
2022/07/11 04:30:32;;;;;;;;;3.80;3.60;;;;;14.66;56.09;99625.19;5090645;28;8867;-75
2022/07/11 04:33:03;;;;;;;;;4.60;4.00;;;;;14.65;55.75;99632.19;5091799;28;8868;-76
2022/07/11 04:35:38;;;;;;;;;2.00;2.00;;;;;14.76;55.81;99634.63;5090212;28;8969;-74
2022/07/11 04:38:07;;;;;;;;;4.00;4.00;;;;;14.75;55.60;99636.38;5080867;28;8848;-74
2022/07/11 04:40:35;;;;;;;;;5.00;3.80;;;;;14.65;55.67;99637.44;5091900;28;8927;-74
2022/07/11 04:43:04;;;;;;;;;6.60;6.60;;;;;14.68;56.07;99647.00;5069322;28;8958;-74
2022/07/11 04:45:33;;;;;;;;;3.20;3.20;;;;;14.75;55.99;99648.66;5068750;28;8823;-74
2022/07/11 04:48:03;;;;;;;;;4.20;3.00;;;;;14.72;56.25;99641.69;5051823;28;8859;-74
2022/07/11 04:50:32;;;;;;;;;3.00;3.00;;;;;14.72;55.99;99646.94;5068715;28;9031;-75
2022/07/11 04:53:00;;;;;;;;;5.00;5.00;;;;;14.89;56.31;99641.41;5068122;28;8842;-74
2022/07/11 04:55:29;;;;;;;;;3.60;3.60;;;;;15.07;55.86;99652.50;5080270;28;8879;-74
2022/07/11 04:57:58;;;;;;;;;4.60;4.60;;;;;15.23;55.41;99656.59;5086325;28;8838;-73
2022/07/11 05:00:27;;;;;;;;;5.60;5.00;;;;;15.16;55.57;99654.94;5087257;28;9753;-73
2022/07/11 05:02:55;;;;;;;;;2.40;2.40;;;;;15.29;55.47;99661.75;5081464;28;8853;-70
2022/07/11 05:05:25;;;;;;;;;3.20;3.20;;;;;15.20;55.70;99649.63;5085487;28;8880;-70
2022/07/11 05:07:54;;;;;;;;;5.00;4.00;;;;;15.48;55.18;99664.91;5087861;28;8849;-70
2022/07/11 05:10:22;;;;;;;;;2.80;2.80;;;;;15.48;55.56;99666.66;5053682;28;8852;-72
2022/07/11 05:12:51;;;;;;;;;4.40;2.80;;;;;15.45;55.14;99679.88;5087786;28;8889;-69
2022/07/11 05:15:20;;;;;;;;;4.60;4.60;;;;;15.53;54.62;99664.81;5087687;28;8857;-69
2022/07/11 05:17:48;;;;;;;;;3.00;3.00;;;;;15.46;54.68;99669.28;5087479;28;8834;-69
2022/07/11 05:20:17;;;;;;;;;3.20;3.20;;;;;15.58;54.63;99670.84;5090812;28;8904;-76
2022/07/11 05:22:47;;;;;;;;;0.80;0.80;;;;;15.53;54.65;99673.56;5099127;28;8860;-75
2022/07/11 05:25:16;;;;;;;;;3.60;3.20;;;;;15.58;54.64;99669.09;5089350;28;8891;-75
2022/07/11 05:27:44;;;;;;;;;4.40;4.40;;;;;15.55;54.66;99676.16;5107596;28;9515;-74
2022/07/11 05:30:13;;;;;;;;;4.00;3.40;;;;;15.59;54.19;99665.56;5091476;28;9543;-75
2022/07/11 05:32:41;;;;;;;;;3.40;3.40;;;;;15.52;54.77;99674.47;5108915;28;8864;-77
2022/07/11 05:35:10;;;;;;;;;3.60;3.60;;;;;15.50;54.93;99678.00;5110237;28;8948;-76
2022/07/11 05:37:40;;;;;;;;;5.40;3.60;;;;;15.47;54.70;99675.44;5109863;28;8853;-74
2022/07/11 05:40:11;;;;;;;;;2.20;2.20;;;;;15.45;55.02;99687.75;5108720;28;9560;-76
2022/07/11 05:42:39;;;;;;;;;4.00;4.00;;;;;15.56;54.79;99691.91;5107800;28;8825;-74
2022/07/11 05:45:09;;;;;;;;;3.60;3.60;;;;;15.66;54.61;99687.34;5108196;28;8889;-77
2022/07/11 05:47:38;;;;;;;;;5.20;5.00;;;;;15.83;53.87;99689.69;5101691;28;9672;-77
2022/07/11 05:50:07;;;;;;;;;3.80;3.80;;;;;15.67;54.26;99690.81;5090485;28;8902;-77
2022/07/11 05:52:36;;;;;;;;;5.60;5.60;;;;;15.95;54.31;99685.94;5091321;28;8868;-77
2022/07/11 05:55:06;;;;;;;;;2.20;2.00;;;;;16.04;53.51;99692.78;5074221;28;8844;-78
2022/07/11 05:57:36;;;;;;;;;3.40;3.40;;;;;16.02;53.57;99687.53;5041138;28;8839;-77
2022/07/11 06:00:05;;;;;;;;;3.00;3.00;;;;;15.87;53.84;99687.84;5073068;28;8843;-78
2022/07/11 06:02:36;;;;;;;;;6.00;5.60;;;;;16.11;53.92;99689.13;5049355;28;8978;-77
2022/07/11 06:05:06;;;;;;;;;3.80;3.80;;;;;16.16;53.21;99685.50;5090348;28;8832;-76
2022/07/11 06:10:28;;;;;;;;;3.00;3.00;;;;;16.47;53.04;99692.72;5105448;28;8867;-78
2022/07/11 06:12:58;;;;;;;;;4.00;3.40;;;;;16.36;53.14;99692.94;5090249;28;8905;-79
2022/07/11 06:15:27;;;;;;;;;3.00;3.00;;;;;16.31;52.65;99699.22;5083277;28;8854;-78
2022/07/11 06:17:56;;;;;;;;;4.60;4.60;;;;;16.30;53.28;99703.63;5069936;28;8851;-77
2022/07/11 06:20:25;;;;;;;;;2.80;2.80;;;;;16.38;53.52;99698.19;5070316;28;9599;-78
2022/07/11 06:22:54;;;;;;;;;2.60;2.40;;;;;16.59;52.75;99702.09;5070054;28;8850;-78
2022/07/11 06:25:23;;;;;;;;;4.20;3.40;;;;;16.77;53.03;99712.22;5070481;28;8845;-77
2022/07/11 06:27:52;;;;;;;;;4.60;4.60;;;;;16.77;52.25;99701.69;5057571;28;8861;-76
2022/07/11 06:30:22;;;;;;;;;6.60;5.40;;;;;16.65;52.82;99706.34;5067999;28;8833;-76
2022/07/11 06:32:51;;;;;;;;;7.40;5.80;;;;;16.83;53.05;99700.72;5016186;28;9736;-75
2022/07/11 06:35:20;;;;;;;;;6.00;6.00;;;;;16.98;52.00;99707.38;5097003;28;8853;-78
2022/07/11 06:37:48;;;;;;;;;4.20;4.20;;;;;17.32;50.55;99706.53;5070013;28;9635;-77
2022/07/11 06:40:18;;;;;;;;;6.80;5.20;;;;;17.25;50.62;99718.13;5086890;28;8973;-78
2022/07/11 06:42:46;;;;;;;;;11.40;9.00;;;;;17.56;50.26;99704.16;5068007;28;8882;-77
2022/07/11 06:45:15;;;;;;;;;4.40;4.40;;;;;17.73;49.96;99702.81;5068842;28;8845;-77
2022/07/11 06:47:45;;;;;;;;;6.20;6.00;;;;;17.95;48.90;99699.59;5085818;28;8952;-77
2022/07/11 06:50:14;;;;;;;;;2.80;2.80;;;;;17.36;49.20;99716.09;5102103;28;8842;-75
2022/07/11 06:52:42;;;;;;;;;4.60;4.60;;;;;17.31;49.59;99710.94;5052694;28;8846;-75
2022/07/11 06:55:11;;;;;;;;;3.00;3.00;;;;;17.05;49.69;99713.34;5086387;28;8867;-76
2022/07/11 06:57:40;;;;;;;;;6.00;6.00;;;;;17.19;49.85;99720.94;5068821;28;8877;-78
2022/07/11 07:00:09;;;;;;;;;3.20;3.20;;;;;17.24;48.81;99719.03;5118121;27;8832;-75
2022/07/11 07:02:38;;;;;;;;;5.00;4.00;;;;;17.21;49.57;99717.34;5041803;28;8849;-76
2022/07/11 07:05:09;;;;;;;;;4.60;4.60;;;;;17.43;48.49;99717.69;5079288;28;8900;-76
2022/07/11 07:07:41;;;;;;;;;3.80;3.80;;;;;17.14;48.71;99719.28;5085864;28;9667;-76
2022/07/11 07:10:10;;;;;;;;;6.40;5.60;;;;;17.30;48.79;99724.16;5087239;28;8952;-77
2022/07/11 07:12:40;;;;;;;;;4.00;4.00;;;;;17.41;48.03;99724.75;5068539;28;8960;-77
2022/07/11 07:15:09;;;;;;;;;4.00;4.00;;;;;17.45;48.36;99726.41;5052499;28;8870;-77
2022/07/11 07:17:39;;;;;;;;;5.00;4.00;;;;;17.58;48.07;99724.31;5083955;28;9531;-76
2022/07/11 07:20:11;;;;;;;;;3.20;3.20;;;;;17.64;47.64;99724.16;5067953;28;8866;-77
2022/07/11 07:22:40;;;;;;;;;4.80;4.80;;;;;17.80;48.39;99727.22;5020326;28;8908;-78
2022/07/11 07:25:10;;;;;;;;;3.00;3.00;;;;;17.84;46.11;99728.91;5061957;28;8869;-78
2022/07/11 07:27:38;;;;;;;;;3.80;3.00;;;;;17.64;46.54;99726.78;5002902;28;8850;-76
2022/07/11 07:30:08;;;;;;;;;3.00;3.00;;;;;17.74;46.57;99735.31;5068523;28;8877;-78
2022/07/11 07:32:37;;;;;;;;;2.20;2.20;;;;;17.56;46.31;99726.13;5069055;28;8866;-79
2022/07/11 07:35:06;;;;;;;;;3.40;3.40;;;;;17.51;47.17;99722.75;5068252;28;8869;-78
2022/07/11 07:37:36;;;;;;;;;3.40;3.40;;;;;17.61;46.77;99733.91;5067805;28;8854;-77
2022/07/11 07:40:26;;;;;;;;;4.20;3.00;;;;;17.58;47.53;99726.97;5081906;28;8864;-77
2022/07/11 07:42:55;;;;;;;;;3.00;3.00;;;;;17.58;46.40;99732.25;5035771;28;9710;-76
2022/07/11 07:45:24;;;;;;;;;3.00;3.00;;;;;17.99;46.43;99718.84;5039962;28;8862;-75
2022/07/11 07:47:53;;;;;;;;;3.20;2.00;;;;;18.10;45.81;99711.50;5007134;28;8850;-76
2022/07/11 07:50:22;;;;;;;;;3.80;3.80;;;;;18.10;45.04;99743.16;5072285;28;8865;-77
2022/07/11 07:52:52;;;;;;;;;3.00;3.00;;;;;18.11;45.04;99722.00;5055560;28;8977;-78
2022/07/11 07:55:21;;;;;;;;;2.80;2.80;;;;;17.99;44.68;99714.44;5080984;28;8854;-74
2022/07/11 07:57:49;;;;;;;;;4.80;4.00;;;;;18.16;45.22;99719.22;5071818;28;8858;-75
2022/07/11 08:03:06;;;;;;;;;4.00;4.00;;;;;18.36;45.09;99723.94;5072657;28;8858;-75
2022/07/11 08:05:36;;;;;;;;;3.00;3.00;;;;;18.14;44.89;99734.25;5081626;28;8828;-77
2022/07/11 08:08:06;;;;;;;;;3.20;3.20;;;;;18.18;44.62;99730.59;5071328;28;8853;-78
2022/07/11 08:10:34;;;;;;;;;2.60;2.60;;;;;18.29;44.21;99723.25;5071496;28;8857;-74
2022/07/11 08:13:03;;;;;;;;;3.00;2.60;;;;;18.28;44.34;99729.44;5101007;28;8848;-76
2022/07/11 08:15:31;;;;;;;;;3.80;3.80;;;;;18.05;44.48;99727.47;5092353;28;9617;-80
2022/07/11 08:18:00;;;;;;;;;3.00;2.00;;;;;18.08;45.60;99719.44;5084010;28;8953;-75
2022/07/11 08:20:29;;;;;;;;;4.40;4.40;;;;;18.20;44.32;99728.78;5091250;27;8825;-77
2022/07/11 08:23:00;;;;;;;;;6.20;6.20;;;;;18.35;44.72;99719.56;5095984;27;9626;-78
2022/07/11 08:25:31;;;;;;;;;6.00;4.00;;;;;18.29;44.65;99725.03;5112736;27;8930;-77
2022/07/11 08:28:00;;;;;;;;;3.40;2.40;;;;;18.59;43.59;99710.03;5092668;28;9636;-75
2022/07/11 08:30:28;;;;;;;;;4.20;4.20;;;;;18.51;43.99;99709.41;5108268;27;8946;-75
2022/07/11 08:32:57;;;;;;;;;2.00;2.00;;;;;18.59;43.93;99722.38;5094652;27;8849;-75
2022/07/11 08:35:26;;;;;;;;;4.00;4.00;;;;;18.72;44.22;99712.31;5115851;27;8866;-74
2022/07/11 08:37:54;;;;;;;;;4.00;4.00;;;;;18.70;43.31;99707.91;5108393;27;8849;-76
2022/07/11 08:40:23;;;;;;;;;5.40;4.00;;;;;18.64;42.57;99710.75;5072927;27;9661;-78
2022/07/11 08:42:56;;;;;;;;;5.00;5.00;;;;;18.83;42.53;99716.38;5083573;27;9617;-76
2022/07/11 08:45:30;;;;;;;;;4.00;4.00;;;;;18.95;42.00;99717.75;5090176;28;8841;-75
2022/07/11 08:48:00;;;;;;;;;4.80;4.00;;;;;18.87;42.72;99711.84;5108642;28;9606;-72
2022/07/11 08:50:29;;;;;;;;;4.80;4.00;;;;;19.02;42.81;99700.78;5110227;28;8845;-77
2022/07/11 08:52:59;;;;;;;;;3.40;3.00;;;;;19.02;42.52;99714.00;5111261;28;9815;-78
2022/07/11 08:55:28;;;;;;;;;3.20;3.20;;;;;18.70;42.48;99721.13;5098539;28;8874;-74
2022/07/11 08:57:58;;;;;;;;;4.00;4.00;;;;;18.72;43.14;99720.22;5072953;28;8902;-72
2022/07/11 09:00:26;;;;;;;;;4.00;4.00;;;;;18.78;43.22;99705.03;5089026;28;8867;-72
2022/07/11 09:02:55;;;;;;;;;3.00;3.00;;;;;18.87;43.59;99706.56;5096861;27;8922;-76
2022/07/11 09:05:24;;;;;;;;;4.40;4.40;;;;;19.22;43.11;99701.88;5109719;28;8984;-76
2022/07/11 09:07:53;;;;;;;;;3.60;3.60;;;;;19.32;42.44;99707.72;5109437;28;8860;-74
2022/07/11 09:10:22;;;;;;;;;2.80;2.40;;;;;19.41;42.13;99696.84;5092056;28;8890;-74
2022/07/11 09:13:02;;;;;;;;;3.80;2.80;;;;;19.25;42.44;99707.09;5085575;28;9078;-74
2022/07/11 09:15:36;;;;;;;;;3.00;3.00;;;;;19.02;42.92;99703.41;5110913;28;8838;-74
2022/07/11 09:18:07;;;;;;;;;2.80;2.80;;;;;19.08;43.18;99703.22;5109345;28;9757;-74
2022/07/11 09:26:31;;;;;;;;;32.50;30.00;;;;;19.34;42.49;99703.25;5110164;28;8852;-74
2022/07/11 09:29:03;;;;;;;;;3.80;3.80;;;;;19.50;40.65;99711.53;5092453;28;8856;-76
2022/07/11 09:31:33;;;;;;;;;3.00;3.00;;;;;19.53;40.73;99706.13;5107037;28;8844;-73
2022/07/11 09:34:04;;;;;;;;;3.00;3.00;;;;;19.82;41.23;99703.34;5077180;28;8977;-75
2022/07/11 09:36:38;;;;;;;;;3.00;3.00;;;;;19.96;40.90;99707.28;5105933;28;8972;-75
2022/07/11 09:39:08;;;;;;;;;2.00;2.00;;;;;19.62;39.85;99705.81;5098380;27;8847;-74
2022/07/11 09:41:38;;;;;;;;;4.40;4.40;;;;;19.90;40.01;99692.47;5087593;28;8872;-73
2022/07/11 09:44:09;;;;;;;;;3.60;3.00;;;;;20.18;39.32;99708.22;5097099;28;8878;-73
2022/07/11 09:46:39;;;;;;;;;3.20;3.20;;;;;20.13;39.41;99696.06;5053674;28;8840;-77
2022/07/11 09:49:08;;;;;;;;;5.00;4.00;;;;;20.34;39.26;99707.63;5097179;28;8990;-72
2022/07/11 09:51:38;;;;;;;;;3.00;3.00;;;;;19.56;38.67;99712.16;5108302;28;8849;-72
2022/07/11 09:54:07;;;;;;;;;2.80;2.80;;;;;19.71;39.86;99713.41;5091095;28;9683;-72
2022/07/11 09:56:40;;;;;;;;;4.80;2.40;;;;;19.94;39.14;99706.47;5105145;28;8829;-75
2022/07/11 09:59:27;;;;;;;;;4.40;4.40;;;;;19.92;39.23;99703.03;5104907;27;8882;-77
2022/07/11 10:01:57;;;;;;;;;7.80;7.40;;;;;20.15;38.94;99704.81;5100601;28;8857;-76
2022/07/11 10:04:26;;;;;;;;;4.60;4.60;;;;;20.19;38.82;99714.38;5080855;28;8885;-74
2022/07/11 10:06:55;;;;;;;;;3.00;3.00;;;;;19.95;39.64;99717.00;5106329;28;8861;-73
2022/07/11 10:09:24;;;;;;;;;3.00;2.60;;;;;19.55;39.66;99722.81;5089689;28;8869;-74
2022/07/11 10:11:54;;;;;;;;;7.00;7.00;;;;;19.88;39.42;99699.63;5103542;28;8829;-76
2022/07/11 10:14:23;;;;;;;;;6.60;6.00;;;;;19.99;37.96;99715.13;5109220;28;9002;-76
2022/07/11 10:17:03;;;;;;;;;6.80;5.80;;;;;20.05;37.74;99705.16;5107327;28;8859;-76
2022/07/11 10:19:42;;;;;;;;;3.00;3.00;;;;;20.11;37.93;99713.78;5097201;28;8874;-77
2022/07/11 10:22:36;;;;;;;;;3.20;3.20;;;;;20.14;38.61;99714.53;5106931;28;8853;-76
2022/07/11 10:25:15;;;;;;;;;4.40;4.40;;;;;20.43;39.00;99701.97;5107955;28;8901;-75
2022/07/11 10:27:59;;;;;;;;;4.20;3.60;;;;;20.92;37.90;99709.81;5073872;28;8933;-74
2022/07/11 10:30:48;;;;;;;;;4.40;3.80;;;;;20.51;38.63;99706.97;5110767;28;8925;-75
2022/07/11 10:33:19;;;;;;;;;4.60;3.00;;;;;20.27;38.09;99717.59;5107809;28;8976;-75
2022/07/11 10:35:50;;;;;;;;;4.00;4.00;;;;;20.07;38.19;99707.75;5121612;27;8853;-75
2022/07/11 10:38:19;;;;;;;;;3.00;3.00;;;;;19.79;38.94;99708.78;5107971;28;8959;-74
2022/07/11 10:40:51;;;;;;;;;3.00;3.00;;;;;20.08;38.49;99695.41;5097421;28;8832;-75
2022/07/11 10:43:38;;;;;;;;;4.60;3.80;;;;;20.18;37.72;99700.25;5117795;27;8853;-73
2022/07/11 10:46:08;;;;;;;;;3.20;3.20;;;;;20.36;37.66;99692.53;5121868;27;8875;-76
2022/07/11 10:48:56;;;;;;;;;2.00;2.00;;;;;20.31;38.07;99681.28;5100455;28;9663;-75
2022/07/11 10:51:29;;;;;;;;;2.80;2.80;;;;;20.64;38.10;99693.25;5098444;28;8971;-75
2022/07/11 10:54:12;;;;;;;;;3.40;3.40;;;;;20.36;38.70;99695.19;5108347;28;8973;-77
2022/07/11 10:56:57;;;;;;;;;3.60;3.00;;;;;20.39;38.62;99695.94;5110605;27;8854;-74
2022/07/11 10:59:26;;;;;;;;;4.40;4.40;;;;;20.19;38.61;99699.34;5101290;28;8861;-74
2022/07/11 11:02:10;;;;;;;;;3.60;3.60;;;;;20.17;38.62;99705.59;5100463;28;8883;-74
2022/07/11 11:04:46;;;;;;;;;2.80;2.60;;;;;20.03;38.30;99691.09;5104868;28;8837;-75
2022/07/11 11:07:32;;;;;;;;;2.80;2.80;;;;;20.14;37.42;99698.66;5123665;27;8864;-76
2022/07/11 11:10:02;;;;;;;;;3.00;3.00;;;;;20.58;36.86;99692.56;5089859;28;8833;-76
2022/07/11 11:13:09;;;;;;;;;5.60;4.80;;;;;21.22;35.61;99683.81;5123393;27;8857;-74
2022/07/11 11:15:42;;;;;;;;;2.60;2.60;;;;;21.17;35.80;99686.69;5098851;28;8841;-76
2022/07/11 11:18:47;;;;;;;;;5.00;4.80;;;;;21.52;35.70;99689.63;5104638;28;9575;-75
2022/07/11 11:21:20;;;;;;;;;3.40;3.00;;;;;21.39;35.60;99699.03;5106398;28;8841;-75
2022/07/11 11:24:11;;;;;;;;;3.00;3.00;;;;;20.94;35.76;99706.16;5106599;28;8896;-74
2022/07/11 11:26:49;;;;;;;;;4.20;3.80;;;;;20.79;37.07;99697.06;5124259;28;8865;-76
2022/07/11 11:29:24;;;;;;;;;4.00;4.00;;;;;20.94;36.75;99684.94;5104391;28;8837;-76
2022/07/11 11:31:55;;;;;;;;;2.60;2.60;;;;;20.86;36.85;99696.81;5121863;28;8829;-75
2022/07/11 11:34:24;;;;;;;;;4.00;4.00;;;;;20.74;37.34;99703.47;5088801;28;8893;-74
2022/07/11 11:36:56;;;;;;;;;3.80;3.20;;;;;20.48;37.09;99701.81;5123299;28;8853;-73
2022/07/11 11:39:28;;;;;;;;;5.20;3.80;;;;;20.69;36.54;99693.03;5123671;27;8933;-75
2022/07/11 11:42:06;;;;;;;;;3.40;3.40;;;;;21.11;35.89;99691.34;5093235;28;8868;-76
2022/07/11 11:44:36;;;;;;;;;6.60;6.00;;;;;21.32;35.49;99692.25;5116809;27;9618;-74
2022/07/11 11:47:05;;;;;;;;;5.00;4.00;;;;;21.64;34.29;99682.91;5106956;28;8851;-68
2022/07/11 11:49:43;;;;;;;;;4.60;3.00;;;;;22.39;33.62;99668.06;5103979;28;8947;-68
2022/07/11 11:52:13;;;;;;;;;3.00;3.00;;;;;22.44;31.88;99673.13;5095603;28;8883;-66
2022/07/11 11:54:42;;;;;;;;;2.80;2.80;;;;;22.39;31.50;99673.38;5107919;28;9094;-67
2022/07/11 11:57:12;;;;;;;;;4.40;4.40;;;;;22.14;32.34;99681.59;5108066;28;9575;-67
2022/07/11 11:59:41;;;;;;;;;2.00;2.00;;;;;21.52;34.12;99692.28;5107913;28;8841;-66
2022/07/11 12:02:11;;;;;;;;;3.00;3.00;;;;;21.28;33.92;99661.47;5108073;28;8857;-65
2022/07/11 12:04:39;;;;;;;;;3.00;3.00;;;;;21.36;32.51;99683.22;5072423;28;8953;-67
2022/07/11 12:07:08;;;;;;;;;4.80;3.80;;;;;21.30;32.81;99683.50;5101275;28;9593;-68
2022/07/11 12:09:47;;;;;;;;;4.00;4.00;;;;;21.43;33.07;99682.88;5100381;28;8970;-67